createdAt,value
2023-01-13T00:00:24.925Z,5.88
2023-01-13T00:03:12.163Z,5.87
2023-01-13T00:05:39.777Z,5.87
2023-01-13T00:08:07.192Z,5.87
2023-01-13T00:10:35.202Z,5.87
2023-01-13T00:13:02.921Z,5.88
2023-01-13T00:15:29.987Z,5.88
2023-01-13T00:17:57.017Z,5.88
2023-01-13T00:20:24.217Z,5.86
2023-01-13T00:22:51.779Z,5.84
2023-01-13T00:25:19.056Z,5.83
2023-01-13T00:27:46.150Z,5.82
2023-01-13T00:30:15.278Z,5.78
2023-01-13T00:32:42.366Z,5.76
2023-01-13T00:35:10.764Z,5.75
2023-01-13T00:37:39.731Z,5.73
2023-01-13T00:40:08.174Z,5.72
2023-01-13T00:42:53.424Z,5.72
2023-01-13T00:45:20.848Z,5.70
2023-01-13T00:47:48.121Z,5.70
2023-01-13T00:50:15.340Z,5.69
2023-01-13T00:52:42.578Z,5.69
2023-01-13T00:55:10.901Z,5.67
2023-01-13T00:57:40.229Z,5.67
2023-01-13T01:00:08.646Z,5.63
2023-01-13T01:02:36.060Z,5.57
2023-01-13T01:05:03.396Z,5.52
2023-01-13T01:07:32.885Z,5.48
2023-01-13T01:10:00.306Z,5.44
2023-01-13T01:12:27.338Z,5.41
2023-01-13T01:14:54.877Z,5.37
2023-01-13T01:17:21.957Z,5.35
2023-01-13T01:19:48.982Z,5.34
2023-01-13T01:22:16.253Z,5.34
2023-01-13T01:24:43.311Z,5.33
2023-01-13T01:27:10.417Z,5.33
2023-01-13T01:29:37.521Z,5.33
2023-01-13T01:32:04.881Z,5.33
2023-01-13T01:34:31.943Z,5.33
2023-01-13T01:36:59.253Z,5.33
2023-01-13T01:39:26.318Z,5.34
2023-01-13T01:42:11.425Z,5.35
2023-01-13T01:45:00.105Z,5.35
2023-01-13T01:47:28.357Z,5.34
2023-01-13T01:49:56.329Z,5.32
2023-01-13T01:52:28.129Z,5.31
2023-01-13T01:55:00.379Z,5.30
2023-01-13T01:57:32.410Z,5.29
2023-01-13T02:00:01.605Z,5.28
2023-01-13T02:02:40.670Z,5.27
2023-01-13T02:05:09.178Z,5.28
2023-01-13T02:07:38.416Z,5.28
2023-01-13T02:10:10.513Z,5.30
2023-01-13T02:12:38.833Z,5.30
2023-01-13T02:15:09.714Z,5.31
2023-01-13T02:17:54.663Z,5.32
2023-01-13T02:20:51.710Z,5.33
2023-01-13T02:24:05.469Z,5.34
2023-01-13T02:27:01.382Z,5.36
2023-01-13T02:30:06.006Z,5.38
2023-01-13T02:32:41.499Z,5.39
2023-01-13T02:35:15.889Z,5.40
2023-01-13T02:37:46.005Z,5.39
2023-01-13T02:40:21.204Z,5.38
2023-01-13T02:43:13.136Z,5.36
2023-01-13T02:45:44.414Z,5.33
2023-01-13T02:48:13.900Z,5.32
2023-01-13T02:50:45.823Z,5.31
2023-01-13T02:53:17.658Z,5.31
2023-01-13T02:55:48.537Z,5.31
2023-01-13T02:58:19.722Z,5.30
2023-01-13T03:00:47.789Z,5.29
2023-01-13T03:03:14.897Z,5.28
2023-01-13T03:05:45.741Z,5.27
2023-01-13T03:08:24.256Z,5.26
2023-01-13T03:11:02.541Z,5.25
2023-01-13T03:13:48.873Z,5.25
2023-01-13T03:16:24.493Z,5.25
2023-01-13T03:19:01.382Z,5.25
2023-01-13T03:21:29.151Z,5.26
2023-01-13T03:24:04.805Z,5.25
2023-01-13T03:26:38.119Z,5.24
2023-01-13T03:29:16.518Z,5.23
2023-01-13T03:31:48.895Z,5.21
2023-01-13T03:34:22.461Z,5.22
2023-01-13T03:36:55.305Z,5.20
2023-01-13T03:39:30.372Z,5.19
2023-01-13T03:42:02.509Z,5.19
2023-01-13T03:44:35.373Z,5.19
2023-01-13T03:47:10.803Z,5.19
2023-01-13T03:49:46.155Z,5.19
2023-01-13T03:52:18.507Z,5.18
2023-01-13T03:54:52.881Z,5.16
2023-01-13T03:57:25.098Z,5.14
2023-01-13T03:59:56.262Z,5.12
2023-01-13T04:02:35.021Z,5.11
2023-01-13T04:05:05.412Z,5.09
2023-01-13T04:07:42.169Z,5.06
2023-01-13T04:10:11.771Z,5.04
2023-01-13T04:13:00.794Z,5.02
2023-01-13T04:15:30.295Z,5.00
2023-01-13T04:18:02.731Z,4.98
2023-01-13T04:20:29.943Z,4.97
2023-01-13T04:22:57.099Z,4.99
2023-01-13T04:25:24.060Z,4.99
2023-01-13T04:27:51.345Z,5.01
2023-01-13T04:30:19.134Z,5.02
2023-01-13T04:32:46.112Z,5.03
2023-01-13T04:35:13.469Z,5.04
2023-01-13T04:37:40.464Z,5.05
2023-01-13T04:40:09.538Z,5.06
2023-01-13T04:42:37.066Z,5.07
2023-01-13T04:45:04.390Z,5.08
2023-01-13T04:47:31.314Z,5.09
2023-01-13T04:49:58.568Z,5.10
2023-01-13T04:52:25.946Z,5.11
2023-01-13T04:54:52.932Z,5.12
2023-01-13T04:57:20.170Z,5.13
2023-01-13T04:59:47.148Z,5.14
2023-01-13T05:02:19.887Z,5.14
2023-01-13T05:04:47.625Z,5.14
2023-01-13T05:07:14.910Z,5.15
2023-01-13T05:09:41.889Z,5.16
2023-01-13T05:12:27.860Z,5.17
2023-01-13T05:15:12.348Z,5.17
2023-01-13T05:17:39.819Z,5.19
2023-01-13T05:20:08.275Z,5.17
2023-01-13T05:22:53.449Z,5.16
2023-01-13T05:25:25.183Z,5.15
2023-01-13T05:27:53.606Z,5.14
2023-01-13T05:30:21.987Z,5.13
2023-01-13T05:32:49.097Z,5.11
2023-01-13T05:35:16.898Z,5.09
2023-01-13T05:37:44.173Z,5.06
2023-01-13T05:40:31.786Z,5.04
2023-01-13T05:43:24.761Z,5.03
2023-01-13T05:45:55.161Z,5.01
2023-01-13T05:48:25.497Z,5.01
2023-01-13T05:50:54.111Z,5.01
2023-01-13T05:53:21.199Z,5.01
2023-01-13T05:55:48.291Z,5.00
2023-01-13T05:58:17.109Z,5.00
2023-01-13T06:00:44.467Z,4.98
2023-01-13T06:03:11.929Z,4.98
2023-01-13T06:05:39.598Z,4.97
2023-01-13T06:08:08.696Z,4.97
2023-01-13T06:10:36.973Z,4.97
2023-01-13T06:13:04.260Z,4.96
2023-01-13T06:15:31.389Z,4.96
2023-01-13T06:17:58.629Z,4.96
2023-01-13T06:20:25.889Z,4.96
2023-01-13T06:22:55.479Z,4.97
2023-01-13T06:25:33.621Z,4.97
2023-01-13T06:28:02.066Z,4.98
2023-01-13T06:30:32.240Z,4.98
2023-01-13T06:33:03.225Z,4.97
2023-01-13T06:35:34.206Z,4.99
2023-01-13T06:38:04.769Z,4.99
2023-01-13T06:40:32.202Z,5.00
2023-01-13T06:43:18.919Z,5.02
2023-01-13T06:45:50.486Z,5.04
2023-01-13T06:48:18.954Z,5.06
2023-01-13T06:50:46.392Z,5.07
2023-01-13T06:53:13.498Z,5.07
2023-01-13T06:55:40.535Z,5.07
2023-01-13T06:58:07.769Z,5.07
2023-01-13T07:00:36.565Z,5.07
2023-01-13T07:03:14.755Z,5.07
2023-01-13T07:05:42.500Z,5.09
2023-01-13T07:08:10.906Z,5.11
2023-01-13T07:10:39.152Z,5.13
2023-01-13T07:13:25.023Z,5.16
2023-01-13T07:16:00.305Z,5.19
2023-01-13T07:18:28.694Z,5.23
2023-01-13T07:20:57.870Z,5.25
2023-01-13T07:23:25.661Z,5.27
2023-01-13T07:25:52.802Z,5.30
2023-01-13T07:28:20.040Z,5.31
2023-01-13T07:30:47.354Z,5.34
2023-01-13T07:33:14.442Z,5.35
2023-01-13T07:35:41.543Z,5.37
2023-01-13T07:38:08.790Z,5.38
2023-01-13T07:40:35.804Z,5.39
2023-01-13T07:43:20.554Z,5.40
2023-01-13T07:45:47.891Z,5.40
2023-01-13T07:48:16.505Z,5.40
2023-01-13T07:50:44.278Z,5.42
2023-01-13T07:53:11.471Z,5.41
2023-01-13T07:55:41.994Z,5.41
2023-01-13T07:58:09.492Z,5.42
2023-01-13T08:00:37.324Z,5.42
2023-01-13T08:03:04.484Z,5.43
2023-01-13T08:05:31.776Z,5.43
2023-01-13T08:07:58.851Z,5.45
2023-01-13T08:10:25.864Z,5.46
2023-01-13T08:13:10.922Z,5.45
2023-01-13T08:15:38.546Z,5.48
2023-01-13T08:18:05.818Z,5.50
2023-01-13T08:20:32.922Z,5.52
2023-01-13T08:23:01.250Z,5.53
2023-01-13T08:25:29.878Z,5.56
2023-01-13T08:28:00.233Z,5.60
2023-01-13T08:30:28.064Z,5.62
2023-01-13T08:32:55.329Z,5.64
2023-01-13T08:35:23.004Z,5.66
2023-01-13T08:37:51.148Z,5.68
2023-01-13T08:40:21.011Z,5.71
2023-01-13T08:42:48.801Z,5.73
2023-01-13T08:45:16.376Z,5.76
2023-01-13T08:47:43.520Z,5.78
2023-01-13T08:50:12.637Z,5.81
2023-01-13T08:52:39.717Z,5.83
2023-01-13T08:55:07.895Z,5.86
2023-01-13T08:57:35.645Z,5.88
2023-01-13T09:00:03.381Z,5.90
2023-01-13T09:02:31.312Z,5.91
2023-01-13T09:05:00.781Z,5.94
2023-01-13T09:07:28.064Z,5.95
2023-01-13T09:09:56.959Z,5.97
2023-01-13T09:12:41.771Z,6.00
2023-01-13T09:15:12.299Z,6.01
2023-01-13T09:17:39.404Z,6.03
2023-01-13T09:20:07.470Z,6.05
2023-01-13T09:22:37.722Z,6.07
2023-01-13T09:25:05.429Z,6.10
2023-01-13T09:27:32.746Z,6.11
2023-01-13T09:30:00.070Z,6.13
2023-01-13T09:32:27.509Z,6.17
2023-01-13T09:35:01.976Z,6.19
2023-01-13T09:37:31.344Z,6.22
2023-01-13T09:39:58.812Z,6.25
2023-01-13T09:42:54.723Z,6.28
2023-01-13T09:45:27.105Z,6.32
2023-01-13T09:48:01.081Z,6.33
2023-01-13T09:50:42.582Z,6.35
2023-01-13T09:53:15.828Z,6.37
2023-01-13T09:55:45.552Z,6.40
2023-01-13T09:58:18.409Z,6.43
2023-01-13T10:00:53.231Z,6.45
2023-01-13T10:03:27.459Z,6.50
2023-01-13T10:06:04.723Z,6.54
2023-01-13T10:08:34.940Z,6.57
2023-01-13T10:11:35.716Z,6.59
2023-01-13T10:14:43.523Z,6.62
2023-01-13T10:17:21.855Z,6.65
2023-01-13T10:19:54.319Z,6.68
2023-01-13T10:22:53.135Z,6.72
2023-01-13T10:25:29.404Z,6.76
2023-01-13T10:28:04.468Z,6.82
2023-01-13T10:30:39.043Z,6.86
2023-01-13T10:33:14.407Z,6.92
2023-01-13T10:36:00.687Z,6.97
2023-01-13T10:38:30.795Z,7.00
2023-01-13T10:41:00.780Z,7.03
2023-01-13T10:43:29.342Z,7.05
2023-01-13T10:46:05.344Z,7.08
2023-01-13T10:48:42.302Z,7.11
2023-01-13T10:51:19.515Z,7.14
2023-01-13T10:53:54.911Z,7.18
2023-01-13T10:56:23.958Z,7.23
2023-01-13T10:58:51.319Z,7.29
2023-01-13T11:01:31.175Z,7.33
2023-01-13T11:04:07.928Z,7.38
2023-01-13T11:06:46.526Z,7.43
2023-01-13T11:09:24.910Z,7.47
2023-01-13T11:11:56.079Z,7.50
2023-01-13T11:14:39.576Z,7.54
2023-01-13T11:17:16.006Z,7.54
2023-01-13T11:19:49.266Z,7.58
2023-01-13T11:22:29.449Z,7.63
2023-01-13T11:25:00.115Z,7.66
2023-01-13T11:27:39.886Z,7.70
2023-01-13T11:30:22.287Z,7.73
2023-01-13T11:33:02.651Z,7.75
2023-01-13T11:35:32.914Z,7.75
2023-01-13T11:38:05.700Z,7.75
2023-01-13T11:40:38.682Z,7.77
2023-01-13T11:43:15.348Z,7.79
2023-01-13T11:45:46.749Z,7.80
2023-01-13T11:48:17.573Z,7.81
2023-01-13T11:50:53.046Z,7.81
2023-01-13T11:53:35.362Z,7.81
2023-01-13T11:56:24.500Z,7.80
2023-01-13T11:59:18.822Z,7.78
2023-01-13T12:02:05.369Z,7.75
2023-01-13T12:04:42.613Z,7.75
2023-01-13T12:07:23.169Z,7.74
2023-01-13T12:10:07.696Z,7.74
2023-01-13T12:12:52.332Z,7.75
2023-01-13T12:15:57.527Z,7.75
2023-01-13T12:18:43.162Z,7.76
2023-01-13T12:21:22.199Z,7.76
2023-01-13T12:23:59.540Z,7.76
2023-01-13T12:26:30.005Z,7.76
2023-01-13T12:29:02.631Z,7.76
2023-01-13T12:31:31.204Z,7.74
2023-01-13T12:34:24.521Z,7.74
2023-01-13T12:36:59.924Z,7.74
2023-01-13T12:39:38.682Z,7.74
2023-01-13T12:42:30.205Z,7.75
2023-01-13T12:45:30.376Z,7.78
2023-01-13T12:47:58.920Z,7.81
2023-01-13T12:50:43.804Z,7.84
2023-01-13T12:53:38.165Z,7.89
2023-01-13T12:56:24.138Z,7.93
2023-01-13T12:58:51.849Z,7.95
2023-01-13T13:01:19.465Z,7.95
2023-01-13T13:04:11.147Z,7.98
2023-01-13T13:06:42.762Z,7.98
2023-01-13T13:09:23.994Z,7.97
2023-01-13T13:12:20.894Z,7.96
2023-01-13T13:15:05.335Z,7.96
2023-01-13T13:18:08.806Z,7.95
2023-01-13T13:20:57.850Z,7.96
2023-01-13T13:23:44.408Z,7.96
2023-01-13T13:26:25.243Z,7.94
2023-01-13T13:29:15.595Z,7.95
2023-01-13T13:32:03.603Z,7.95
2023-01-13T13:34:39.585Z,7.95
2023-01-13T13:37:25.943Z,7.96
2023-01-13T13:40:11.249Z,7.97
2023-01-13T13:43:01.618Z,7.98
2023-01-13T13:45:56.002Z,7.99
2023-01-13T13:48:27.403Z,7.99
2023-01-13T13:50:58.312Z,8.00
2023-01-13T13:53:28.147Z,8.00
2023-01-13T13:56:01.041Z,8.00
2023-01-13T13:58:30.242Z,7.99
2023-01-13T14:00:58.213Z,7.98
2023-01-13T14:03:30.585Z,7.97
2023-01-13T14:05:59.895Z,7.97
2023-01-13T14:08:29.365Z,7.95
2023-01-13T14:10:56.751Z,7.97
2023-01-13T14:13:26.392Z,7.97
2023-01-13T14:15:59.996Z,7.97
2023-01-13T14:18:29.085Z,7.97
2023-01-13T14:20:59.722Z,7.96
2023-01-13T14:23:29.943Z,7.94
2023-01-13T14:26:02.564Z,7.92
2023-01-13T14:28:33.103Z,7.90
2023-01-13T14:31:01.305Z,7.87
2023-01-13T14:33:38.831Z,7.85
2023-01-13T14:36:18.340Z,7.84
2023-01-13T14:38:47.749Z,7.83
2023-01-13T14:41:27.077Z,7.83
2023-01-13T14:43:57.369Z,7.83
2023-01-13T14:46:25.664Z,7.84
2023-01-13T14:48:55.654Z,7.85
2023-01-13T14:51:29.231Z,7.84
2023-01-13T14:53:57.505Z,7.84
2023-01-13T14:56:51.342Z,7.84
2023-01-13T14:59:45.001Z,7.85
2023-01-13T15:02:45.576Z,7.84
2023-01-13T15:05:43.772Z,7.85
2023-01-13T15:08:36.161Z,7.85
2023-01-13T15:11:05.913Z,7.87
2023-01-13T15:13:44.981Z,7.89
2023-01-13T15:16:26.056Z,7.92
2023-01-13T15:18:54.171Z,7.93
2023-01-13T15:21:23.185Z,7.94
2023-01-13T15:23:50.421Z,7.95
2023-01-13T15:26:22.368Z,7.95
2023-01-13T15:28:50.364Z,7.97
2023-01-13T15:31:17.915Z,7.96
2023-01-13T15:33:45.152Z,7.96
2023-01-13T15:36:23.931Z,7.95
2023-01-13T15:38:51.306Z,7.94
2023-01-13T15:41:38.920Z,7.95
2023-01-13T15:44:32.464Z,7.94
2023-01-13T15:47:03.132Z,7.94
2023-01-13T15:49:35.338Z,7.94
2023-01-13T15:52:03.169Z,7.94
2023-01-13T15:54:30.865Z,7.94
2023-01-13T15:56:58.098Z,7.95
2023-01-13T15:59:28.479Z,7.95
2023-01-13T16:01:55.600Z,7.95
2023-01-13T16:04:22.879Z,7.96
2023-01-13T16:06:50.113Z,7.95
2023-01-13T16:09:17.993Z,7.96
2023-01-13T16:11:45.251Z,7.97
2023-01-13T16:14:12.323Z,7.96
2023-01-13T16:16:39.555Z,7.96
2023-01-13T16:19:06.816Z,7.96
2023-01-13T16:21:33.936Z,7.96
2023-01-13T16:24:01.401Z,7.96
2023-01-13T16:26:30.609Z,7.96
2023-01-13T16:28:59.273Z,7.96
2023-01-13T16:31:32.194Z,7.97
2023-01-13T16:34:00.169Z,7.97
2023-01-13T16:36:27.912Z,7.98
2023-01-13T16:38:55.444Z,7.99
2023-01-13T16:41:24.930Z,8.01
2023-01-13T16:43:52.343Z,8.01
2023-01-13T16:46:26.773Z,8.02
2023-01-13T16:48:55.136Z,8.04
2023-01-13T16:51:23.308Z,8.05
2023-01-13T16:53:51.483Z,8.06
2023-01-13T16:56:24.789Z,8.07
2023-01-13T16:58:53.173Z,8.09
2023-01-13T17:01:25.839Z,8.11
2023-01-13T17:03:53.904Z,8.14
2023-01-13T17:06:25.411Z,8.16
2023-01-13T17:08:53.878Z,8.18
2023-01-13T17:11:21.653Z,8.20
2023-01-13T17:13:48.875Z,8.23
2023-01-13T17:16:22.668Z,8.23
2023-01-13T17:18:50.547Z,8.25
2023-01-13T17:21:18.037Z,8.26
2023-01-13T17:23:45.358Z,8.28
2023-01-13T17:26:26.011Z,8.29
2023-01-13T17:28:53.079Z,8.30
2023-01-13T17:31:20.459Z,8.31
2023-01-13T17:33:47.679Z,8.32
2023-01-13T17:36:14.946Z,8.33
2023-01-13T17:38:43.199Z,8.33
2023-01-13T17:41:10.196Z,8.34
2023-01-13T17:43:37.469Z,8.34
2023-01-13T17:46:08.084Z,8.32
2023-01-13T17:48:35.377Z,8.30
2023-01-13T17:51:03.658Z,8.27
2023-01-13T17:53:31.223Z,8.22
2023-01-13T17:55:58.479Z,8.18
2023-01-13T17:58:25.509Z,8.16
2023-01-13T18:00:53.145Z,8.14
2023-01-13T18:03:21.116Z,8.12
2023-01-13T18:05:48.222Z,8.10
2023-01-13T18:08:16.090Z,8.09
2023-01-13T18:10:43.196Z,8.08
2023-01-13T18:13:10.713Z,8.06
2023-01-13T18:15:38.285Z,8.05
2023-01-13T18:18:05.470Z,8.05
2023-01-13T18:20:50.183Z,8.06
2023-01-13T18:23:38.713Z,8.07
2023-01-13T18:26:34.676Z,8.08
2023-01-13T18:29:03.026Z,8.07
2023-01-13T18:31:29.998Z,8.08
2023-01-13T18:33:57.340Z,8.08
2023-01-13T18:36:24.845Z,8.08
2023-01-13T18:38:53.195Z,8.09
2023-01-13T18:41:38.267Z,8.10
2023-01-13T18:44:05.969Z,8.09
2023-01-13T18:46:33.030Z,8.09
2023-01-13T18:49:00.101Z,8.08
2023-01-13T18:51:27.390Z,8.08
2023-01-13T18:53:54.871Z,8.08
2023-01-13T18:56:22.320Z,8.08
2023-01-13T18:58:51.984Z,8.07
2023-01-13T19:01:22.650Z,8.07
2023-01-13T19:03:50.315Z,8.06
2023-01-13T19:06:17.323Z,8.06
2023-01-13T19:08:44.577Z,8.06
2023-01-13T19:11:11.670Z,8.04
2023-01-13T19:13:39.672Z,8.03
2023-01-13T19:16:09.262Z,8.04
2023-01-13T19:18:37.238Z,8.04
2023-01-13T19:21:08.290Z,8.04
2023-01-13T19:23:35.885Z,8.04
2023-01-13T19:26:04.421Z,8.05
2023-01-13T19:28:31.809Z,8.06
2023-01-13T19:31:02.834Z,8.07
2023-01-13T19:33:32.777Z,8.06
2023-01-13T19:36:01.167Z,8.05
2023-01-13T19:38:29.456Z,8.05
2023-01-13T19:40:58.083Z,8.04
2023-01-13T19:43:43.900Z,8.04
2023-01-13T19:46:12.170Z,8.03
2023-01-13T19:48:39.790Z,8.03
2023-01-13T19:51:07.864Z,8.04
2023-01-13T19:53:34.920Z,8.05
2023-01-13T19:56:02.406Z,8.05
2023-01-13T19:58:29.999Z,8.05
2023-01-13T20:00:57.089Z,8.05
2023-01-13T20:03:26.171Z,8.06
2023-01-13T20:05:53.746Z,8.07
2023-01-13T20:08:22.212Z,8.08
2023-01-13T20:10:50.532Z,8.10
2023-01-13T20:13:18.486Z,8.12
2023-01-13T20:15:45.662Z,8.12
2023-01-13T20:18:13.226Z,8.12
2023-01-13T20:20:40.483Z,8.11
2023-01-13T20:23:07.579Z,8.11
2023-01-13T20:25:34.787Z,8.12
2023-01-13T20:28:02.440Z,8.12
2023-01-13T20:30:29.423Z,8.11
2023-01-13T20:32:56.720Z,8.10
2023-01-13T20:35:24.428Z,8.10
2023-01-13T20:37:51.527Z,8.11
2023-01-13T20:40:18.654Z,8.11
2023-01-13T20:42:49.161Z,8.09
2023-01-13T20:45:20.894Z,8.08
2023-01-13T20:47:48.839Z,8.07
2023-01-13T20:50:16.852Z,8.07
2023-01-13T20:52:44.025Z,8.07
2023-01-13T20:55:12.612Z,8.07
2023-01-13T20:57:40.174Z,8.05
2023-01-13T21:00:10.422Z,8.04
2023-01-13T21:02:39.645Z,8.02
2023-01-13T21:05:07.871Z,8.01
2023-01-13T21:07:35.152Z,8.00
2023-01-13T21:10:02.355Z,7.99
2023-01-13T21:12:46.960Z,7.96
2023-01-13T21:15:22.221Z,7.93
2023-01-13T21:18:08.808Z,7.91
2023-01-13T21:20:39.523Z,7.89
2023-01-13T21:23:07.817Z,7.87
2023-01-13T21:25:37.357Z,7.84
2023-01-13T21:28:06.413Z,7.83
2023-01-13T21:30:33.626Z,7.81
2023-01-13T21:33:01.054Z,7.78
2023-01-13T21:35:29.224Z,7.77
2023-01-13T21:37:59.287Z,7.74
2023-01-13T21:40:26.421Z,7.72
2023-01-13T21:43:11.101Z,7.70
2023-01-13T21:45:59.051Z,7.68
2023-01-13T21:48:26.297Z,7.65
2023-01-13T21:50:53.567Z,7.64
2023-01-13T21:53:20.564Z,7.62
2023-01-13T21:55:51.537Z,7.61
2023-01-13T21:58:18.908Z,7.59
2023-01-13T22:00:49.100Z,7.57
2023-01-13T22:03:18.581Z,7.55
2023-01-13T22:05:46.314Z,7.54
2023-01-13T22:08:15.201Z,7.54
2023-01-13T22:10:57.426Z,7.52
2023-01-13T22:13:42.544Z,7.51
2023-01-13T22:16:10.299Z,7.49
2023-01-13T22:18:38.001Z,7.46
2023-01-13T22:21:05.199Z,7.41
2023-01-13T22:23:32.470Z,7.38
2023-01-13T22:26:05.481Z,7.35
2023-01-13T22:28:34.524Z,7.31
2023-01-13T22:31:01.547Z,7.27
2023-01-13T22:33:28.715Z,7.24
2023-01-13T22:35:58.836Z,7.21
2023-01-13T22:38:25.828Z,7.18
2023-01-13T22:41:00.058Z,7.15
2023-01-13T22:43:27.853Z,7.11
2023-01-13T22:46:01.464Z,7.08
2023-01-13T22:48:28.969Z,7.04
2023-01-13T22:50:56.447Z,7.03
2023-01-13T22:53:23.921Z,7.01
2023-01-13T22:55:57.744Z,6.97
2023-01-13T22:58:25.355Z,6.95
2023-01-13T23:00:52.692Z,6.92
2023-01-13T23:03:20.474Z,6.90
2023-01-13T23:05:48.264Z,6.89
2023-01-13T23:08:15.842Z,6.86
2023-01-13T23:10:43.219Z,6.84
2023-01-13T23:13:11.411Z,6.82
2023-01-13T23:15:38.498Z,6.80
2023-01-13T23:18:05.751Z,6.78
2023-01-13T23:20:33.098Z,6.76
2023-01-13T23:23:00.196Z,6.74
2023-01-13T23:25:27.289Z,6.71
2023-01-13T23:27:55.742Z,6.70
2023-01-13T23:30:23.454Z,6.67
2023-01-13T23:32:50.495Z,6.67
2023-01-13T23:35:18.488Z,6.66
2023-01-13T23:37:45.761Z,6.65
2023-01-13T23:40:15.187Z,6.63
2023-01-13T23:42:42.274Z,6.62
2023-01-13T23:45:12.572Z,6.60
2023-01-13T23:47:41.236Z,6.60
2023-01-13T23:50:09.565Z,6.59
2023-01-13T23:52:36.600Z,6.57
2023-01-13T23:55:03.530Z,6.55
2023-01-13T23:57:30.662Z,6.55
2023-01-13T23:59:57.589Z,6.53
